ěÝzenÝ letovÚho provozu ╚eskÚ republiky
Letiste: LKCS Aktualizace: 09.12.2022 11:31:31  UTC
 METAR LKCS 09.12. 11:30 ...
METAR LKCS 091130Z AUTO VRB02KT 3900 BR OVC004/// M01/M02 Q1003=